createdAt,value
2023-01-17T00:00:18.280Z,0
2023-01-17T00:03:43.635Z,0
2023-01-17T00:07:08.966Z,0
2023-01-17T00:10:34.266Z,0
2023-01-17T00:13:59.557Z,0
2023-01-17T00:17:24.856Z,0
2023-01-17T00:20:50.146Z,0
2023-01-17T00:24:15.423Z,0
2023-01-17T00:27:40.750Z,0
2023-01-17T00:31:06.160Z,0
2023-01-17T00:34:31.475Z,0
2023-01-17T00:37:56.738Z,0
2023-01-17T00:41:22.048Z,0
2023-01-17T00:44:47.334Z,0
2023-01-17T00:48:12.669Z,0
2023-01-17T00:51:37.932Z,0
2023-01-17T00:55:03.194Z,0
2023-01-17T00:58:28.442Z,0
2023-01-17T01:01:53.861Z,0
2023-01-17T01:05:19.039Z,0
2023-01-17T01:08:44.329Z,0
2023-01-17T01:12:09.632Z,0
2023-01-17T01:15:34.916Z,0
2023-01-17T01:19:00.172Z,0
2023-01-17T01:22:25.514Z,0
2023-01-17T01:25:50.756Z,0
2023-01-17T01:29:16.063Z,0
2023-01-17T01:32:42.047Z,0
2023-01-17T01:36:07.343Z,0
2023-01-17T01:39:32.673Z,0
2023-01-17T01:42:57.937Z,0
2023-01-17T01:46:23.227Z,0
2023-01-17T01:49:48.520Z,0
2023-01-17T01:53:13.796Z,0
2023-01-17T01:56:39.141Z,0
2023-01-17T02:00:04.381Z,0
2023-01-17T02:03:29.704Z,0
2023-01-17T02:06:54.999Z,0
2023-01-17T02:10:20.289Z,0
2023-01-17T02:13:45.585Z,0
2023-01-17T02:17:10.882Z,0
2023-01-17T02:20:36.174Z,0
2023-01-17T02:24:01.472Z,0
2023-01-17T02:27:26.783Z,0
2023-01-17T02:30:52.083Z,0
2023-01-17T02:34:17.350Z,0
2023-01-17T02:37:42.647Z,0
2023-01-17T02:41:08.006Z,0
2023-01-17T02:44:33.223Z,0
2023-01-17T02:47:58.529Z,0
2023-01-17T02:51:23.743Z,0
2023-01-17T02:54:49.023Z,0
2023-01-17T02:58:14.323Z,0
2023-01-17T03:01:39.721Z,0
2023-01-17T03:05:04.892Z,0
2023-01-17T03:08:30.146Z,0
2023-01-17T03:11:55.412Z,0
2023-01-17T03:15:20.719Z,0
2023-01-17T03:18:45.990Z,0
2023-01-17T03:22:11.383Z,0
2023-01-17T03:25:36.574Z,0
2023-01-17T03:29:01.866Z,0
2023-01-17T03:32:27.136Z,0
2023-01-17T03:35:52.411Z,0
2023-01-17T03:39:17.700Z,0
2023-01-17T03:42:42.979Z,0
2023-01-17T03:46:08.288Z,0
2023-01-17T03:49:33.540Z,0
2023-01-17T03:52:58.785Z,0
2023-01-17T03:56:24.058Z,0
2023-01-17T03:59:49.283Z,0
2023-01-17T04:03:14.561Z,0
2023-01-17T04:06:39.832Z,0
2023-01-17T04:10:05.137Z,0
2023-01-17T04:13:30.351Z,0
2023-01-17T04:16:55.637Z,0
2023-01-17T04:20:20.833Z,0
2023-01-17T04:23:46.078Z,0
2023-01-17T04:27:11.374Z,0
2023-01-17T04:30:36.810Z,0
2023-01-17T04:34:01.991Z,0
2023-01-17T04:37:27.830Z,0
2023-01-17T04:40:53.080Z,0
2023-01-17T04:44:18.304Z,0
2023-01-17T04:47:43.608Z,0
2023-01-17T04:51:08.859Z,0
2023-01-17T04:54:34.091Z,0
2023-01-17T04:57:59.364Z,0
2023-01-17T05:01:24.650Z,0
2023-01-17T05:04:49.851Z,0
2023-01-17T05:08:15.093Z,0
2023-01-17T05:11:40.406Z,0
2023-01-17T05:15:05.665Z,0
2023-01-17T05:18:30.946Z,0
2023-01-17T05:21:56.336Z,0
2023-01-17T05:25:21.676Z,0
2023-01-17T05:28:47.039Z,0
2023-01-17T05:32:12.341Z,0
2023-01-17T05:35:37.632Z,0
2023-01-17T05:39:02.899Z,0
2023-01-17T05:42:28.120Z,0
2023-01-17T05:45:53.449Z,0
2023-01-17T05:49:18.694Z,0
2023-01-17T05:52:43.949Z,0
2023-01-17T05:56:09.203Z,0
2023-01-17T05:59:37.220Z,0
2023-01-17T06:02:59.747Z,0
2023-01-17T06:06:24.912Z,0
2023-01-17T06:09:50.168Z,0
2023-01-17T06:13:15.503Z,0
2023-01-17T06:16:40.747Z,0
2023-01-17T06:20:06.137Z,0
2023-01-17T06:23:31.672Z,0
2023-01-17T06:26:56.990Z,0
2023-01-17T06:30:22.310Z,0
2023-01-17T06:33:47.550Z,0
2023-01-17T06:37:12.831Z,0
2023-01-17T06:40:38.080Z,0
2023-01-17T06:44:03.341Z,0
2023-01-17T06:47:28.604Z,0
2023-01-17T06:50:53.832Z,0
2023-01-17T06:54:19.078Z,0
2023-01-17T06:57:44.307Z,0
2023-01-17T07:01:09.718Z,0
2023-01-17T07:04:34.848Z,0
2023-01-17T07:08:00.104Z,0
2023-01-17T07:11:25.370Z,0
2023-01-17T07:14:50.606Z,0
2023-01-17T07:18:15.863Z,0
2023-01-17T07:21:41.155Z,6
2023-01-17T07:25:06.413Z,6
2023-01-17T07:28:31.660Z,6
2023-01-17T07:31:56.903Z,6
2023-01-17T07:35:22.163Z,6
2023-01-17T07:38:47.449Z,6
2023-01-17T07:42:12.708Z,6
2023-01-17T07:45:37.956Z,6
2023-01-17T07:49:03.220Z,6
2023-01-17T07:52:28.462Z,6
2023-01-17T07:55:53.753Z,6
2023-01-17T07:59:18.993Z,6
2023-01-17T08:02:44.271Z,11
2023-01-17T08:06:09.547Z,6
2023-01-17T08:09:34.783Z,11
2023-01-17T08:13:00.100Z,6
2023-01-17T08:16:25.600Z,11
2023-01-17T08:19:50.813Z,23
2023-01-17T08:23:16.115Z,17
2023-01-17T08:26:41.457Z,17
2023-01-17T08:30:06.754Z,17
2023-01-17T08:33:31.980Z,34
2023-01-17T08:36:57.957Z,23
2023-01-17T08:40:23.818Z,45
2023-01-17T08:43:49.060Z,34
2023-01-17T08:47:14.386Z,28
2023-01-17T08:50:40.526Z,28
2023-01-17T08:54:05.752Z,45
2023-01-17T08:57:31.014Z,28
2023-01-17T09:00:56.412Z,34
2023-01-17T09:04:21.658Z,34
2023-01-17T09:07:46.866Z,45
2023-01-17T09:11:12.131Z,34
2023-01-17T09:14:37.380Z,34
2023-01-17T09:18:02.636Z,28
2023-01-17T09:21:27.913Z,39
2023-01-17T09:24:53.189Z,56
2023-01-17T09:28:18.425Z,62
2023-01-17T09:31:43.701Z,62
2023-01-17T09:35:09.021Z,56
2023-01-17T09:38:34.371Z,45
2023-01-17T09:41:59.590Z,34
2023-01-17T09:45:24.951Z,34
2023-01-17T09:48:50.273Z,45
2023-01-17T09:52:15.600Z,45
2023-01-17T09:55:40.903Z,34
2023-01-17T09:59:06.192Z,28
2023-01-17T10:02:31.574Z,23
2023-01-17T10:05:56.771Z,68
2023-01-17T10:09:22.096Z,68
2023-01-17T10:12:47.398Z,73
2023-01-17T10:16:12.635Z,73
2023-01-17T10:19:37.899Z,73
2023-01-17T10:23:03.171Z,73
2023-01-17T10:26:28.512Z,73
2023-01-17T10:29:53.823Z,73
2023-01-17T10:33:19.200Z,79
2023-01-17T10:36:44.510Z,79
2023-01-17T10:40:09.815Z,23
2023-01-17T10:43:35.149Z,73
2023-01-17T10:47:00.442Z,84
2023-01-17T10:50:25.671Z,56
2023-01-17T10:53:51.045Z,34
2023-01-17T10:57:16.361Z,62
2023-01-17T11:00:41.611Z,84
2023-01-17T11:04:06.902Z,39
2023-01-17T11:07:33.539Z,23
2023-01-17T11:10:58.775Z,23
2023-01-17T11:14:24.017Z,23
2023-01-17T11:17:49.288Z,23
2023-01-17T11:21:14.590Z,28
2023-01-17T11:24:39.837Z,28
2023-01-17T11:28:05.095Z,34
2023-01-17T11:31:30.335Z,28
2023-01-17T11:34:55.582Z,28
2023-01-17T11:38:20.876Z,113
2023-01-17T11:41:46.118Z,28
2023-01-17T11:45:11.369Z,39
2023-01-17T11:48:36.684Z,62
2023-01-17T11:52:01.975Z,51
2023-01-17T11:55:27.284Z,56
2023-01-17T11:58:52.512Z,203
2023-01-17T12:02:17.765Z,158
2023-01-17T12:05:43.044Z,174
2023-01-17T12:09:08.321Z,68
2023-01-17T12:12:33.607Z,73
2023-01-17T12:15:58.847Z,141
2023-01-17T12:19:24.076Z,124
2023-01-17T12:22:49.328Z,124
2023-01-17T12:26:14.630Z,124
2023-01-17T12:29:40.070Z,107
2023-01-17T12:33:05.206Z,96
2023-01-17T12:36:30.462Z,90
2023-01-17T12:39:55.742Z,84
2023-01-17T12:43:21.251Z,84
2023-01-17T12:46:46.591Z,79
2023-01-17T12:50:11.831Z,68
2023-01-17T12:53:37.072Z,68
2023-01-17T12:57:02.340Z,62
2023-01-17T13:00:27.591Z,56
2023-01-17T13:03:52.863Z,56
2023-01-17T13:07:18.109Z,51
2023-01-17T13:10:43.394Z,51
2023-01-17T13:14:08.640Z,45
2023-01-17T13:17:33.925Z,51
2023-01-17T13:20:59.237Z,45
2023-01-17T13:24:24.461Z,51
2023-01-17T13:27:49.775Z,51
2023-01-17T13:31:15.051Z,51
2023-01-17T13:34:40.295Z,62
2023-01-17T13:38:05.574Z,56
2023-01-17T13:41:30.829Z,39
2023-01-17T13:44:56.078Z,34
2023-01-17T13:48:21.342Z,34
2023-01-17T13:51:46.635Z,34
2023-01-17T13:55:11.899Z,34
2023-01-17T13:58:37.142Z,34
2023-01-17T14:02:02.394Z,34
2023-01-17T14:05:27.655Z,34
2023-01-17T14:08:52.912Z,34
2023-01-17T14:12:18.195Z,34
2023-01-17T14:15:43.458Z,28
2023-01-17T14:19:08.689Z,23
2023-01-17T14:22:33.943Z,11
2023-01-17T14:25:59.211Z,11
2023-01-17T14:29:24.470Z,11
2023-01-17T15:06:57.258Z,0
2023-01-17T15:10:22.505Z,6
2023-01-17T15:13:47.723Z,6
2023-01-17T15:17:12.973Z,6
2023-01-17T15:20:38.367Z,0
2023-01-17T15:24:03.771Z,0
2023-01-17T15:27:29.004Z,0
2023-01-17T15:30:54.411Z,0
2023-01-17T15:34:19.700Z,0
2023-01-17T15:37:44.954Z,0
2023-01-17T15:41:10.234Z,0
2023-01-17T15:44:47.310Z,0
2023-01-17T15:48:00.693Z,0
2023-01-17T15:51:25.937Z,0
2023-01-17T15:54:51.168Z,0
2023-01-17T15:58:16.441Z,0
2023-01-17T16:01:41.747Z,0
2023-01-17T16:05:07.759Z,0
2023-01-17T16:08:33.081Z,0
2023-01-17T16:12:22.260Z,0
2023-01-17T16:15:47.699Z,0
2023-01-17T16:19:13.049Z,0
2023-01-17T16:22:38.442Z,0
2023-01-17T16:26:03.776Z,0
2023-01-17T16:29:29.110Z,0
2023-01-17T16:32:54.510Z,0
2023-01-17T16:36:19.787Z,0
2023-01-17T16:39:45.157Z,0
2023-01-17T16:43:10.463Z,0
2023-01-17T16:46:35.929Z,0
2023-01-17T16:50:01.165Z,0
2023-01-17T16:53:26.466Z,0
2023-01-17T16:56:51.881Z,0
2023-01-17T17:00:17.237Z,0
2023-01-17T17:03:42.531Z,0
2023-01-17T17:07:07.862Z,0
2023-01-17T17:10:33.182Z,0
2023-01-17T17:13:58.594Z,0
2023-01-17T17:17:24.002Z,0
2023-01-17T17:20:49.350Z,0
2023-01-17T17:24:14.698Z,0
2023-01-17T17:27:40.057Z,0
2023-01-17T17:31:05.404Z,0
2023-01-17T17:34:30.668Z,0
2023-01-17T17:37:55.995Z,0
2023-01-17T17:41:21.362Z,0
2023-01-17T17:44:46.684Z,0
2023-01-17T17:48:11.997Z,0
2023-01-17T17:51:37.269Z,0
2023-01-17T17:55:02.526Z,0
2023-01-17T17:58:27.820Z,0
2023-01-17T18:01:53.126Z,0
2023-01-17T18:05:18.385Z,0
2023-01-17T18:08:43.692Z,0
2023-01-17T18:12:08.962Z,0
2023-01-17T18:15:34.255Z,0
2023-01-17T18:18:59.568Z,0
2023-01-17T18:22:24.950Z,0
2023-01-17T18:25:50.281Z,0
2023-01-17T18:29:15.582Z,0
2023-01-17T18:32:40.890Z,0
2023-01-17T18:36:06.155Z,0
2023-01-17T18:39:31.473Z,0
2023-01-17T18:42:57.047Z,0
2023-01-17T18:46:22.111Z,0
2023-01-17T18:49:47.329Z,0
2023-01-17T18:53:12.623Z,0
2023-01-17T18:56:38.012Z,0
2023-01-17T19:00:03.281Z,0
2023-01-17T19:03:28.553Z,0
2023-01-17T19:06:53.879Z,0
2023-01-17T19:10:19.112Z,0
2023-01-17T19:13:44.418Z,0
2023-01-17T19:17:09.707Z,0
2023-01-17T19:20:34.982Z,0
2023-01-17T19:24:00.280Z,0
2023-01-17T19:27:25.536Z,0
2023-01-17T19:30:50.784Z,0
2023-01-17T19:34:16.118Z,0
2023-01-17T19:37:41.314Z,0
2023-01-17T19:41:06.628Z,0
2023-01-17T19:44:31.838Z,0
2023-01-17T19:47:57.414Z,0
2023-01-17T19:51:22.366Z,0
2023-01-17T19:54:47.654Z,0
2023-01-17T19:58:13.249Z,0
2023-01-17T20:01:38.306Z,0
2023-01-17T20:05:03.518Z,0
2023-01-17T20:08:28.799Z,0
2023-01-17T20:11:54.088Z,0
2023-01-17T20:15:19.363Z,0
2023-01-17T20:18:44.587Z,0
2023-01-17T20:22:09.866Z,0
2023-01-17T20:25:35.132Z,0
2023-01-17T20:29:00.356Z,0
2023-01-17T20:32:25.650Z,0
2023-01-17T20:36:01.245Z,0
2023-01-17T20:39:16.133Z,0
2023-01-17T20:42:41.373Z,0
2023-01-17T20:46:06.702Z,0
2023-01-17T20:49:31.897Z,0
2023-01-17T20:52:57.137Z,0
2023-01-17T20:56:22.360Z,0
2023-01-17T20:59:47.605Z,0
2023-01-17T21:03:12.897Z,0
2023-01-17T21:06:38.165Z,0
2023-01-17T21:10:03.372Z,0
2023-01-17T21:13:28.617Z,0
2023-01-17T21:16:53.972Z,0
2023-01-17T21:20:19.114Z,0
2023-01-17T21:23:44.360Z,0
2023-01-17T21:27:09.670Z,0
2023-01-17T21:30:34.977Z,0
2023-01-17T21:34:00.166Z,0
2023-01-17T21:37:25.424Z,0
2023-01-17T21:40:50.718Z,0
2023-01-17T21:44:15.955Z,0
2023-01-17T21:47:41.203Z,0
2023-01-17T21:51:06.523Z,0
2023-01-17T21:54:31.790Z,0
2023-01-17T21:57:57.470Z,0
2023-01-17T22:01:22.627Z,0
2023-01-17T22:04:47.517Z,0
2023-01-17T22:08:12.796Z,0
2023-01-17T22:11:38.036Z,0
2023-01-17T22:15:03.333Z,0
2023-01-17T22:18:28.556Z,0
2023-01-17T22:21:53.817Z,0
2023-01-17T22:25:19.071Z,0
2023-01-17T22:28:44.312Z,0
2023-01-17T22:32:09.586Z,0
2023-01-17T22:35:34.839Z,0
2023-01-17T22:39:00.115Z,0
2023-01-17T22:42:25.327Z,0
2023-01-17T22:45:50.600Z,0
2023-01-17T22:49:15.946Z,0
2023-01-17T22:52:41.215Z,0
2023-01-17T22:56:06.445Z,0
2023-01-17T22:59:31.670Z,0
2023-01-17T23:02:57.391Z,0
2023-01-17T23:06:22.183Z,0
2023-01-17T23:09:48.256Z,0
2023-01-17T23:13:13.469Z,0
2023-01-17T23:16:38.720Z,0
2023-01-17T23:20:03.959Z,0
2023-01-17T23:23:29.229Z,0
2023-01-17T23:26:54.475Z,0
2023-01-17T23:30:19.716Z,0
2023-01-17T23:33:45.007Z,0
2023-01-17T23:37:10.273Z,0
2023-01-17T23:40:35.557Z,0
2023-01-17T23:44:00.755Z,0
2023-01-17T23:47:25.998Z,0
2023-01-17T23:50:51.233Z,0
2023-01-17T23:54:16.470Z,0
2023-01-17T23:57:41.735Z,0
